createdAt,value
2017-12-13T00:02:17.533Z,12.70
2017-12-13T00:04:45.792Z,10.90
2017-12-13T00:07:13.189Z,13.50
2017-12-13T00:09:40.618Z,10.63
2017-12-13T00:12:08.053Z,10.87
2017-12-13T00:14:35.482Z,12.10
2017-12-13T00:17:02.929Z,15.40
2017-12-13T00:19:30.363Z,12.00
2017-12-13T00:21:58.571Z,9.37
2017-12-13T00:24:26.005Z,10.57
2017-12-13T00:26:53.449Z,10.80
2017-12-13T00:29:21.656Z,15.80
2017-12-13T00:31:49.077Z,10.97
2017-12-13T00:34:17.272Z,11.20
2017-12-13T00:36:44.709Z,12.30
2017-12-13T00:39:12.909Z,9.97
2017-12-13T00:41:40.332Z,10.83
2017-12-13T00:44:08.541Z,9.33
2017-12-13T00:46:35.981Z,12.70
2017-12-13T00:49:04.217Z,9.13
2017-12-13T00:51:32.523Z,11.00
2017-12-13T00:54:00.740Z,10.03
2017-12-13T00:56:28.165Z,10.63
2017-12-13T00:58:55.608Z,11.27
2017-12-13T01:01:23.795Z,12.00
2017-12-13T01:03:51.232Z,8.97
2017-12-13T01:06:18.664Z,9.87
2017-12-13T01:08:46.112Z,8.00
2017-12-13T01:11:13.557Z,9.30
2017-12-13T01:13:40.979Z,9.47
2017-12-13T01:16:09.167Z,7.13
2017-12-13T01:18:36.596Z,8.80
2017-12-13T01:21:04.810Z,15.10
2017-12-13T01:23:32.237Z,10.23
2017-12-13T01:26:00.445Z,9.33
2017-12-13T01:28:27.885Z,10.40
2017-12-13T01:30:55.307Z,9.50
2017-12-13T01:33:22.739Z,12.43
2017-12-13T01:35:58.992Z,8.17
2017-12-13T01:38:26.426Z,9.00
2017-12-13T01:40:53.861Z,10.63
2017-12-13T01:43:22.054Z,9.97
2017-12-13T01:45:49.492Z,15.80
2017-12-13T01:48:17.698Z,12.30
2017-12-13T01:50:45.168Z,9.10
2017-12-13T01:53:13.331Z,10.33
2017-12-13T01:55:40.769Z,11.30
2017-12-13T01:58:08.196Z,9.47
2017-12-13T02:00:35.631Z,8.93
2017-12-13T02:03:03.069Z,10.20
2017-12-13T02:05:30.501Z,8.93
2017-12-13T02:07:57.932Z,8.03
2017-12-13T02:10:26.132Z,17.67
2017-12-13T02:12:53.570Z,8.30
2017-12-13T02:15:21.759Z,10.37
2017-12-13T02:17:49.195Z,11.27
2017-12-13T02:20:16.628Z,13.23
2017-12-13T02:22:44.071Z,9.27
2017-12-13T02:25:11.496Z,9.03
2017-12-13T02:27:38.934Z,9.93
2017-12-13T02:30:06.368Z,7.93
2017-12-13T02:32:33.804Z,9.53
2017-12-13T02:35:01.239Z,7.90
2017-12-13T02:37:28.676Z,11.77
2017-12-13T02:40:18.685Z,11.90
2017-12-13T02:42:46.122Z,14.33
2017-12-13T02:45:13.543Z,12.33
2017-12-13T02:47:41.749Z,12.27
2017-12-13T02:50:09.193Z,12.70
2017-12-13T02:52:37.446Z,9.70
2017-12-13T02:55:05.647Z,10.90
2017-12-13T02:57:33.075Z,12.30
2017-12-13T03:00:00.504Z,9.57
2017-12-13T03:02:27.944Z,12.90
2017-12-13T03:04:55.371Z,14.10
2017-12-13T03:07:23.583Z,13.90
2017-12-13T03:09:51.016Z,10.47
2017-12-13T03:12:19.472Z,12.90
2017-12-13T03:14:47.668Z,11.87
2017-12-13T03:17:15.096Z,12.07
2017-12-13T03:19:43.307Z,16.23
2017-12-13T03:22:10.738Z,11.80
2017-12-13T03:24:38.928Z,12.10
2017-12-13T03:27:06.367Z,12.17
2017-12-13T03:29:34.583Z,11.80
2017-12-13T03:32:02.015Z,11.80
2017-12-13T03:34:29.450Z,14.07
2017-12-13T03:36:56.879Z,11.73
2017-12-13T03:39:24.311Z,11.00
2017-12-13T03:41:51.731Z,14.27
2017-12-13T03:44:19.943Z,14.33
2017-12-13T03:46:47.368Z,11.30
2017-12-13T03:49:15.573Z,14.23
2017-12-13T03:51:42.999Z,12.23
2017-12-13T03:54:10.435Z,13.00
2017-12-13T03:56:37.856Z,12.80
2017-12-13T03:59:05.288Z,9.60
2017-12-13T04:01:32.717Z,11.40
2017-12-13T04:04:00.932Z,10.17
2017-12-13T04:06:28.431Z,10.10
2017-12-13T04:08:55.859Z,25.40
2017-12-13T04:11:23.289Z,12.50
2017-12-13T04:13:50.719Z,10.20
2017-12-13T04:16:18.922Z,11.07
2017-12-13T04:18:46.360Z,13.23
2017-12-13T04:21:14.614Z,13.10
2017-12-13T04:23:42.047Z,12.13
2017-12-13T04:26:09.491Z,14.73
2017-12-13T04:28:36.925Z,12.30
2017-12-13T04:31:04.347Z,13.60
2017-12-13T04:33:32.555Z,13.30
2017-12-13T04:35:59.984Z,15.20
2017-12-13T04:38:28.179Z,12.90
2017-12-13T04:40:55.607Z,15.70
2017-12-13T04:43:23.811Z,15.20
2017-12-13T04:45:51.248Z,16.97
2017-12-13T04:48:19.446Z,23.17
2017-12-13T04:50:46.875Z,13.70
2017-12-13T04:53:15.075Z,14.40
2017-12-13T04:55:42.508Z,17.40
2017-12-13T04:58:11.803Z,11.37
2017-12-13T05:00:39.245Z,16.07
2017-12-13T05:03:06.682Z,12.80
2017-12-13T05:05:34.124Z,13.30
2017-12-13T05:08:01.558Z,15.30
2017-12-13T05:10:28.992Z,17.23
2017-12-13T05:12:57.178Z,12.60
2017-12-13T05:15:25.467Z,18.17
2017-12-13T05:17:52.996Z,14.03
2017-12-13T05:20:20.431Z,19.47
2017-12-13T05:22:47.864Z,10.83
2017-12-13T05:25:15.296Z,19.27
2017-12-13T05:27:42.730Z,17.83
2017-12-13T05:30:10.922Z,12.97
2017-12-13T05:32:39.119Z,13.97
2017-12-13T05:35:06.569Z,12.40
2017-12-13T05:37:34.000Z,17.03
2017-12-13T05:40:02.199Z,12.30
2017-12-13T05:42:29.634Z,14.20
2017-12-13T05:44:57.839Z,11.90
2017-12-13T05:47:25.266Z,20.27
2017-12-13T05:49:53.455Z,10.23
2017-12-13T05:52:20.883Z,14.30
2017-12-13T05:54:49.084Z,12.90
2017-12-13T05:57:16.517Z,13.70
2017-12-13T05:59:44.723Z,12.20
2017-12-13T06:02:12.152Z,15.03
2017-12-13T06:04:40.414Z,13.40
2017-12-13T06:07:07.849Z,14.70
2017-12-13T06:09:38.812Z,13.43
2017-12-13T06:12:06.236Z,11.87
2017-12-13T06:14:33.672Z,12.77
2017-12-13T06:17:01.112Z,18.60
2017-12-13T06:19:29.306Z,12.37
2017-12-13T06:21:56.723Z,14.23
2017-12-13T06:24:24.926Z,13.63
2017-12-13T06:26:52.356Z,18.77
2017-12-13T06:29:21.394Z,20.13
2017-12-13T06:31:48.824Z,14.50
2017-12-13T06:34:17.028Z,11.30
2017-12-13T06:36:44.447Z,14.83
2017-12-13T06:39:12.657Z,14.60
2017-12-13T06:41:40.078Z,19.07
2017-12-13T06:44:08.293Z,15.30
2017-12-13T06:46:35.716Z,14.93
2017-12-13T06:49:03.932Z,14.37
2017-12-13T06:51:31.354Z,13.43
2017-12-13T06:53:58.841Z,19.60
2017-12-13T06:56:26.279Z,14.47
2017-12-13T06:58:53.704Z,14.70
2017-12-13T07:01:21.918Z,15.43
2017-12-13T07:03:49.360Z,16.17
2017-12-13T07:06:16.894Z,11.80
2017-12-13T07:08:44.316Z,14.03
2017-12-13T07:11:11.807Z,11.13
2017-12-13T07:13:39.996Z,13.33
2017-12-13T07:16:08.205Z,13.17
2017-12-13T07:18:35.632Z,13.00
2017-12-13T07:21:04.667Z,16.20
2017-12-13T07:23:32.096Z,12.23
2017-12-13T07:25:59.530Z,12.00
2017-12-13T07:28:27.743Z,15.50
2017-12-13T07:30:55.168Z,9.57
2017-12-13T07:33:23.359Z,18.40
2017-12-13T07:35:50.805Z,14.83
2017-12-13T07:38:19.003Z,13.37
2017-12-13T07:40:46.444Z,13.93
2017-12-13T07:43:13.868Z,15.17
2017-12-13T07:45:41.293Z,14.13
2017-12-13T07:48:08.732Z,11.10
2017-12-13T07:50:36.168Z,12.83
2017-12-13T07:53:03.610Z,9.40
2017-12-13T07:55:31.788Z,11.90
2017-12-13T07:57:59.983Z,11.67
2017-12-13T08:00:27.419Z,13.27
2017-12-13T08:02:55.626Z,12.00
2017-12-13T08:05:23.047Z,10.93
2017-12-13T08:07:53.261Z,11.23
2017-12-13T08:10:21.447Z,10.53
2017-12-13T08:12:48.888Z,14.70
2017-12-13T08:15:16.321Z,10.50
2017-12-13T08:17:43.753Z,13.50
2017-12-13T08:20:11.180Z,9.10
2017-12-13T08:22:39.382Z,10.73
2017-12-13T08:25:06.802Z,13.70
2017-12-13T08:27:35.000Z,12.37
2017-12-13T08:30:02.423Z,11.73
2017-12-13T08:32:30.623Z,14.57
2017-12-13T08:34:58.046Z,12.53
2017-12-13T08:37:25.483Z,13.40
2017-12-13T08:39:53.984Z,9.63
2017-12-13T08:42:21.409Z,9.37
2017-12-13T08:44:48.856Z,8.97
2017-12-13T08:47:16.364Z,7.03
2017-12-13T08:49:43.775Z,9.23
2017-12-13T08:52:11.195Z,6.77
2017-12-13T08:54:39.400Z,12.73
2017-12-13T08:57:06.903Z,8.03
2017-12-13T08:59:34.345Z,11.23
2017-12-13T09:02:01.818Z,6.50
2017-12-13T09:04:29.196Z,5.87
2017-12-13T09:06:57.451Z,7.00
2017-12-13T09:09:24.875Z,7.53
2017-12-13T09:11:52.306Z,8.20
2017-12-13T09:14:19.736Z,4.53
2017-12-13T09:16:47.938Z,11.83
2017-12-13T09:19:15.359Z,5.67
2017-12-13T09:21:43.547Z,6.70
2017-12-13T09:24:11.748Z,6.47
2017-12-13T09:26:39.172Z,5.47
2017-12-13T09:29:07.367Z,7.60
2017-12-13T09:31:34.830Z,6.10
2017-12-13T09:34:02.247Z,6.07
2017-12-13T09:36:29.680Z,8.00
2017-12-13T09:38:57.108Z,7.53
2017-12-13T09:41:24.541Z,5.63
2017-12-13T09:43:52.743Z,7.97
2017-12-13T09:46:20.168Z,8.03
2017-12-13T09:48:48.351Z,7.43
2017-12-13T09:51:15.785Z,9.93
2017-12-13T09:53:43.972Z,5.27
2017-12-13T09:56:12.166Z,10.30
2017-12-13T09:58:39.597Z,7.50
2017-12-13T10:01:07.787Z,6.53
2017-12-13T10:03:35.217Z,5.30
2017-12-13T10:06:02.636Z,6.80
2017-12-13T10:08:30.059Z,5.87
2017-12-13T10:10:57.471Z,7.80
2017-12-13T10:13:24.908Z,4.20
2017-12-13T10:15:52.327Z,5.43
2017-12-13T10:18:23.136Z,4.63
2017-12-13T10:20:50.557Z,5.73
2017-12-13T10:23:17.984Z,3.87
2017-12-13T10:25:45.399Z,5.63
2017-12-13T10:28:12.834Z,4.67
2017-12-13T10:30:40.256Z,5.57
2017-12-13T10:33:07.687Z,5.73
2017-12-13T10:35:35.867Z,5.87
2017-12-13T10:38:04.078Z,10.07
2017-12-13T10:40:31.501Z,7.33
2017-12-13T10:42:59.707Z,3.00
2017-12-13T10:45:27.151Z,4.03
2017-12-13T10:47:54.572Z,5.10
2017-12-13T10:50:21.999Z,4.50
2017-12-13T10:52:49.429Z,4.27
2017-12-13T10:55:16.859Z,9.90
2017-12-13T10:57:45.044Z,3.07
2017-12-13T11:00:12.471Z,6.13
2017-12-13T11:02:39.887Z,5.50
2017-12-13T11:05:07.323Z,6.37
2017-12-13T11:07:34.800Z,7.30
2017-12-13T11:10:02.181Z,5.20
2017-12-13T11:12:29.611Z,5.80
2017-12-13T11:14:57.040Z,6.17
2017-12-13T11:17:24.457Z,4.23
2017-12-13T11:19:51.888Z,4.13
2017-12-13T11:22:19.311Z,4.93
2017-12-13T11:24:46.738Z,3.23
2017-12-13T11:27:14.155Z,4.23
2017-12-13T11:29:41.605Z,11.20
2017-12-13T11:32:09.030Z,3.73
2017-12-13T11:34:37.219Z,4.33
2017-12-13T11:37:11.680Z,3.70
2017-12-13T11:39:39.114Z,3.83
2017-12-13T11:42:06.568Z,3.10
2017-12-13T11:44:33.969Z,3.77
2017-12-13T11:47:01.400Z,3.10
2017-12-13T11:49:28.824Z,4.10
2017-12-13T11:51:56.242Z,4.20
2017-12-13T11:54:23.664Z,1.83
2017-12-13T11:56:51.151Z,3.07
2017-12-13T11:59:18.551Z,4.63
2017-12-13T12:01:45.989Z,2.43
2017-12-13T12:04:14.176Z,6.83
2017-12-13T12:06:41.599Z,3.87
2017-12-13T12:09:09.029Z,5.67
2017-12-13T12:11:36.460Z,4.77
2017-12-13T12:14:03.888Z,2.83
2017-12-13T12:16:32.107Z,3.27
2017-12-13T12:18:59.487Z,3.33
2017-12-13T12:21:26.999Z,4.03
2017-12-13T12:23:54.363Z,5.93
2017-12-13T12:26:21.786Z,4.70
2017-12-13T12:28:49.982Z,3.50
2017-12-13T12:31:18.325Z,4.70
2017-12-13T12:33:47.728Z,2.43
2017-12-13T12:36:15.149Z,3.63
2017-12-13T12:38:42.571Z,2.70
2017-12-13T12:41:10.002Z,4.87
2017-12-13T12:43:37.432Z,2.10
2017-12-13T12:46:04.913Z,2.50
2017-12-13T12:48:32.363Z,2.80
2017-12-13T12:50:59.783Z,2.30
2017-12-13T12:53:27.212Z,3.93
2017-12-13T12:55:54.632Z,3.00
2017-12-13T12:58:22.056Z,3.90
2017-12-13T13:00:49.475Z,1.80
2017-12-13T13:03:16.895Z,3.43
2017-12-13T13:05:44.322Z,2.57
2017-12-13T13:08:11.739Z,2.30
2017-12-13T13:10:39.945Z,2.60
2017-12-13T13:13:07.369Z,5.77
2017-12-13T13:15:35.564Z,2.23
2017-12-13T13:18:02.979Z,5.80
2017-12-13T13:20:30.411Z,3.10
2017-12-13T13:22:57.853Z,5.67
2017-12-13T13:25:25.267Z,4.63
2017-12-13T13:27:53.462Z,5.10
2017-12-13T13:30:20.884Z,1.60
2017-12-13T13:32:48.303Z,1.90
2017-12-13T13:35:15.727Z,4.00
2017-12-13T13:37:43.165Z,4.13
2017-12-13T13:40:11.364Z,2.27
2017-12-13T13:42:38.797Z,2.50
2017-12-13T13:45:06.995Z,1.87
2017-12-13T13:47:34.415Z,2.93
2017-12-13T13:50:01.834Z,3.67
2017-12-13T13:52:29.260Z,5.87
2017-12-13T13:54:56.692Z,2.27
2017-12-13T13:57:24.886Z,3.23
2017-12-13T13:59:53.061Z,3.47
2017-12-13T14:02:20.488Z,4.40
2017-12-13T14:04:47.918Z,4.53
2017-12-13T14:07:15.355Z,3.50
2017-12-13T14:09:42.772Z,2.07
2017-12-13T14:12:10.967Z,2.67
2017-12-13T14:14:38.387Z,2.20
2017-12-13T14:17:05.817Z,1.80
2017-12-13T14:19:33.231Z,2.50
2017-12-13T14:22:00.671Z,2.60
2017-12-13T14:24:28.083Z,4.00
2017-12-13T14:26:55.511Z,2.40
2017-12-13T14:29:22.955Z,3.20
2017-12-13T14:31:54.729Z,2.73
2017-12-13T14:34:22.243Z,2.80
2017-12-13T14:36:49.684Z,3.90
2017-12-13T14:39:17.112Z,3.90
2017-12-13T14:41:44.536Z,3.23
2017-12-13T14:44:12.732Z,1.97
2017-12-13T14:46:40.156Z,2.50
2017-12-13T14:49:08.345Z,3.83
2017-12-13T14:51:36.536Z,2.43
2017-12-13T14:54:03.959Z,6.70
2017-12-13T14:56:32.148Z,4.20
2017-12-13T14:59:00.358Z,2.37
2017-12-13T15:01:27.768Z,4.13
2017-12-13T15:03:55.969Z,2.50
2017-12-13T15:06:23.387Z,3.60
2017-12-13T15:08:50.819Z,6.60
2017-12-13T15:11:18.243Z,4.57
2017-12-13T15:13:45.684Z,6.50
2017-12-13T15:16:13.873Z,4.13
2017-12-13T15:18:41.295Z,4.40
2017-12-13T15:21:08.718Z,3.40
2017-12-13T15:23:36.168Z,2.57
2017-12-13T15:26:03.579Z,3.70
2017-12-13T15:28:31.768Z,2.40
2017-12-13T15:30:59.200Z,2.67
2017-12-13T15:33:26.756Z,3.53
2017-12-13T15:35:54.176Z,6.27
2017-12-13T15:38:21.603Z,3.50
2017-12-13T15:40:49.091Z,6.27
2017-12-13T15:43:17.250Z,3.50
2017-12-13T15:45:44.671Z,4.90
2017-12-13T15:48:12.882Z,2.63
2017-12-13T15:50:40.308Z,6.07
2017-12-13T15:53:08.585Z,2.83
2017-12-13T15:55:36.785Z,4.47
2017-12-13T15:58:04.205Z,4.40
2017-12-13T16:00:33.419Z,3.60
2017-12-13T16:03:02.692Z,4.33
2017-12-13T16:05:30.116Z,5.23
2017-12-13T16:07:59.557Z,3.73
2017-12-13T16:10:27.765Z,3.67
2017-12-13T16:12:55.191Z,4.20
2017-12-13T16:15:23.457Z,8.10
2017-12-13T16:17:50.890Z,5.60
2017-12-13T16:20:18.327Z,5.53
2017-12-13T16:22:45.752Z,4.47
2017-12-13T16:25:13.971Z,5.30
2017-12-13T16:27:41.413Z,4.43
2017-12-13T16:30:08.833Z,6.03
2017-12-13T16:32:38.064Z,5.10
2017-12-13T16:35:05.479Z,4.40
2017-12-13T16:37:32.911Z,4.77
2017-12-13T16:40:00.452Z,4.87
2017-12-13T16:42:27.899Z,5.93
2017-12-13T16:44:55.328Z,4.57
2017-12-13T16:47:22.772Z,2.87
2017-12-13T16:49:50.181Z,3.33
2017-12-13T16:52:17.607Z,4.20
2017-12-13T16:54:45.057Z,8.33
2017-12-13T16:57:13.239Z,7.20
2017-12-13T16:59:42.616Z,7.87
2017-12-13T17:02:10.803Z,4.43
2017-12-13T17:04:39.008Z,6.77
2017-12-13T17:07:06.419Z,9.63
2017-12-13T17:09:34.619Z,11.37
2017-12-13T17:12:02.048Z,9.43
2017-12-13T17:14:29.476Z,4.03
2017-12-13T17:16:56.906Z,5.43
2017-12-13T17:19:24.343Z,5.53
2017-12-13T17:21:51.779Z,5.23
2017-12-13T17:24:19.976Z,6.30
2017-12-13T17:26:47.401Z,5.03
2017-12-13T17:29:14.839Z,5.33
2017-12-13T17:31:42.255Z,3.80
2017-12-13T17:34:09.723Z,4.57
2017-12-13T17:36:37.879Z,4.73
2017-12-13T17:39:05.359Z,3.60
2017-12-13T17:41:32.787Z,4.83
2017-12-13T17:44:00.286Z,4.50
2017-12-13T17:46:27.725Z,5.90
2017-12-13T17:48:55.135Z,4.70
2017-12-13T17:51:22.563Z,3.20
2017-12-13T17:53:49.982Z,4.83
2017-12-13T17:56:17.410Z,4.63
2017-12-13T17:58:45.595Z,3.70
2017-12-13T18:01:13.798Z,4.20
2017-12-13T18:03:41.219Z,4.17
2017-12-13T18:06:09.412Z,5.20
2017-12-13T18:08:36.841Z,3.50
2017-12-13T18:11:04.272Z,9.50
2017-12-13T18:13:31.761Z,9.13
2017-12-13T18:15:59.195Z,6.27
2017-12-13T18:18:26.625Z,5.63
2017-12-13T18:20:55.192Z,4.70
2017-12-13T18:23:22.614Z,7.00
2017-12-13T18:25:50.814Z,4.10
2017-12-13T18:28:18.242Z,4.00
2017-12-13T18:30:45.660Z,3.90
2017-12-13T18:33:13.088Z,5.57
2017-12-13T18:35:40.515Z,3.37
2017-12-13T18:38:07.945Z,4.53
2017-12-13T18:40:36.445Z,4.93
2017-12-13T18:43:03.870Z,6.73
2017-12-13T18:45:31.311Z,7.07
2017-12-13T18:47:58.741Z,4.00
2017-12-13T18:50:26.919Z,3.60
2017-12-13T18:52:54.352Z,5.17
2017-12-13T18:55:21.769Z,2.93
2017-12-13T18:57:49.216Z,2.97
2017-12-13T19:00:18.268Z,7.17
2017-12-13T19:02:46.456Z,4.70
2017-12-13T19:05:13.897Z,6.90
2017-12-13T19:07:42.092Z,3.20
2017-12-13T19:10:09.516Z,4.13
2017-12-13T19:12:36.939Z,4.20
2017-12-13T19:15:04.440Z,13.80
2017-12-13T19:17:31.859Z,4.07
2017-12-13T19:19:59.299Z,4.73
2017-12-13T19:22:26.730Z,10.23
2017-12-13T19:24:54.912Z,3.67
2017-12-13T19:27:22.336Z,6.70
2017-12-13T19:29:49.771Z,7.00
2017-12-13T19:32:17.223Z,9.33
2017-12-13T19:34:44.653Z,5.13
2017-12-13T19:37:12.071Z,9.73
2017-12-13T19:39:40.267Z,6.77
2017-12-13T19:42:07.721Z,5.87
2017-12-13T19:44:35.914Z,6.00
2017-12-13T19:47:03.335Z,4.37
2017-12-13T19:49:31.524Z,5.70
2017-12-13T19:51:58.978Z,6.93
2017-12-13T19:54:26.396Z,4.77
2017-12-13T19:56:53.819Z,6.37
2017-12-13T19:59:21.237Z,5.83
2017-12-13T20:01:49.439Z,9.93
2017-12-13T20:04:16.957Z,5.07
2017-12-13T20:06:44.397Z,7.27
2017-12-13T20:09:11.820Z,5.73
2017-12-13T20:11:39.238Z,7.20
2017-12-13T20:14:07.431Z,4.00
2017-12-13T20:16:34.860Z,2.93
2017-12-13T20:19:02.271Z,3.17
2017-12-13T20:21:29.767Z,4.00
2017-12-13T20:23:57.190Z,5.33
2017-12-13T20:26:24.691Z,3.83
2017-12-13T20:28:52.113Z,3.40
2017-12-13T20:31:19.556Z,2.70
2017-12-13T20:33:46.983Z,3.10
2017-12-13T20:36:15.174Z,4.30
2017-12-13T20:38:42.592Z,4.47
2017-12-13T20:41:10.052Z,6.23
2017-12-13T20:43:39.369Z,3.40
2017-12-13T20:46:07.612Z,4.63
2017-12-13T20:48:35.047Z,3.90
2017-12-13T20:51:02.545Z,4.10
2017-12-13T20:53:29.965Z,4.53
2017-12-13T20:55:57.391Z,4.10
2017-12-13T20:58:24.993Z,3.00
2017-12-13T21:00:52.471Z,3.93
2017-12-13T21:03:21.720Z,3.67
2017-12-13T21:05:50.202Z,4.03
2017-12-13T21:08:23.434Z,2.90
2017-12-13T21:10:50.998Z,6.03
2017-12-13T21:13:19.339Z,2.63
2017-12-13T21:15:54.349Z,2.43
2017-12-13T21:18:21.989Z,5.23
2017-12-13T21:20:50.178Z,2.03
2017-12-13T21:23:18.371Z,2.37
2017-12-13T21:25:45.797Z,3.17
2017-12-13T21:28:13.995Z,2.40
2017-12-13T21:30:41.422Z,2.70
2017-12-13T21:33:09.621Z,4.77
2017-12-13T21:35:37.052Z,2.60
2017-12-13T21:38:05.244Z,2.17
2017-12-13T21:40:32.676Z,2.97
2017-12-13T21:43:00.096Z,3.60
2017-12-13T21:45:27.528Z,3.10
2017-12-13T21:47:54.944Z,6.33
2017-12-13T21:50:22.369Z,5.10
2017-12-13T21:52:49.859Z,2.87
2017-12-13T21:55:17.278Z,7.80
2017-12-13T21:57:44.704Z,2.80
2017-12-13T22:00:12.144Z,3.30
2017-12-13T22:02:40.330Z,1.80
2017-12-13T22:05:07.763Z,3.67
2017-12-13T22:07:36.075Z,2.73
2017-12-13T22:10:03.504Z,2.10
2017-12-13T22:12:31.704Z,1.77
2017-12-13T22:14:59.123Z,2.43
2017-12-13T22:17:26.549Z,3.00
2017-12-13T22:19:53.967Z,3.40
2017-12-13T22:22:21.404Z,6.67
2017-12-13T22:24:49.672Z,3.93
2017-12-13T22:27:17.133Z,4.37
2017-12-13T22:29:44.532Z,8.67
2017-12-13T22:32:11.973Z,4.93
2017-12-13T22:34:39.392Z,4.87
2017-12-13T22:37:06.831Z,4.00
2017-12-13T22:39:34.268Z,4.03
2017-12-13T22:42:01.716Z,4.17
2017-12-13T22:44:29.132Z,4.43
2017-12-13T22:46:57.333Z,1.83
2017-12-13T22:49:24.747Z,4.83
2017-12-13T22:51:52.194Z,2.20
2017-12-13T22:54:19.608Z,4.40
2017-12-13T22:56:47.045Z,2.37
2017-12-13T22:59:15.241Z,2.97
2017-12-13T23:01:42.672Z,1.20
2017-12-13T23:04:10.858Z,2.00
2017-12-13T23:06:38.275Z,3.07
2017-12-13T23:09:05.699Z,1.90
2017-12-13T23:11:33.128Z,1.87
2017-12-13T23:14:00.567Z,1.47
2017-12-13T23:16:28.756Z,1.37
2017-12-13T23:18:56.967Z,2.80
2017-12-13T23:21:24.376Z,1.90
2017-12-13T23:23:52.597Z,1.20
2017-12-13T23:26:20.033Z,1.10
2017-12-13T23:28:47.478Z,1.40
2017-12-13T23:31:15.659Z,2.80
2017-12-13T23:33:43.087Z,3.03
2017-12-13T23:36:10.507Z,1.20
2017-12-13T23:38:37.935Z,3.37
2017-12-13T23:41:05.411Z,5.80
2017-12-13T23:43:32.840Z,1.70
2017-12-13T23:46:00.251Z,3.97
2017-12-13T23:48:27.692Z,1.20
2017-12-13T23:50:55.115Z,1.37
2017-12-13T23:53:23.321Z,4.43
2017-12-13T23:55:50.747Z,1.93
2017-12-13T23:58:18.166Z,1.80
